Current Conditions
Mostly Clear
Conditions



Pressure
1012.92 (hPa) - 29.91 (inHG)
Visibility

10.0 (km) - 6.2 (miles)
Temperature
14  °C
Temperature
13  °C
Dewpoint
94  %
 Humidity
Wind Speed
1.3  m/s
3  mph
5  km/h
3  kts
Wind Direction
N
45°
E
90°
135°
S
180°
225°
W
270°
315°
 140°

South East
Airport Data
EDDC
Dresden Airport
Metar :EDDC 031850Z 14003KT 120V180 CAVOK 14/13 Q1013 NOSIG
Tue 3rd August 20:50 pm
Raw Metar Info
Raw METAR is the most common format in the world for the transmission of observational weather data. It is highly standardized through the International Civil Aviation Organization (ICAO), which allows it to be understood throughout most of the world.
API Info
Data Provided by
https://www.checkwx.com/weather/EDDC

Aviation Weather providing METAR, TAF, AIRMET, SIGMET and OUTLOOK Weather Reports
© Info
CSS/SVG/PHP scripts were developed by weather34.com for use in the weather34 template © 2015-2021

Guide Info provided by Metar-Wikipedia